createdAt,value
2022-12-25T00:00:06.232Z,13.65
2022-12-25T00:02:33.242Z,12.60
2022-12-25T00:05:00.141Z,13.60
2022-12-25T00:07:27.598Z,16.50
2022-12-25T00:09:54.847Z,12.93
2022-12-25T00:12:22.497Z,13.70
2022-12-25T00:14:49.241Z,12.02
2022-12-25T00:17:16.711Z,11.88
2022-12-25T00:19:43.459Z,11.40
2022-12-25T00:22:10.255Z,13.07
2022-12-25T00:24:37.155Z,10.80
2022-12-25T00:27:04.518Z,10.32
2022-12-25T00:29:31.302Z,11.20
2022-12-25T00:31:58.186Z,11.32
2022-12-25T00:34:27.226Z,12.38
2022-12-25T00:36:54.046Z,12.23
2022-12-25T00:39:20.806Z,15.40
2022-12-25T00:42:06.232Z,11.23
2022-12-25T00:44:33.046Z,14.80
2022-12-25T00:47:03.453Z,11.73
2022-12-25T00:49:30.337Z,12.30
2022-12-25T00:51:57.136Z,10.88
2022-12-25T00:54:23.939Z,12.18
2022-12-25T00:56:50.691Z,13.15
2022-12-25T00:59:17.483Z,10.95
2022-12-25T01:01:44.976Z,11.73
2022-12-25T01:04:12.939Z,11.45
2022-12-25T01:06:40.327Z,13.02
2022-12-25T01:09:25.734Z,11.93
2022-12-25T01:11:52.752Z,9.52
2022-12-25T01:14:19.555Z,10.38
2022-12-25T01:16:46.437Z,9.93
2022-12-25T01:19:13.754Z,13.27
2022-12-25T01:21:41.074Z,9.80
2022-12-25T01:24:10.693Z,10.35
2022-12-25T01:26:37.950Z,8.93
2022-12-25T01:29:04.791Z,9.97
2022-12-25T01:31:31.656Z,9.98
2022-12-25T01:33:58.490Z,10.35
2022-12-25T01:36:26.441Z,9.07
2022-12-25T01:38:54.597Z,9.43
2022-12-25T01:41:23.594Z,11.88
2022-12-25T01:44:37.464Z,10.38
2022-12-25T01:47:05.736Z,9.48
2022-12-25T01:49:36.318Z,11.13
2022-12-25T01:52:10.744Z,12.18
2022-12-25T01:54:55.209Z,9.15
2022-12-25T01:57:34.589Z,11.15
2022-12-25T02:00:02.345Z,8.57
2022-12-25T02:02:29.606Z,9.70
2022-12-25T02:05:03.177Z,9.50
2022-12-25T02:07:32.843Z,9.18
2022-12-25T02:09:59.645Z,7.70
2022-12-25T02:12:30.052Z,9.02
2022-12-25T02:15:05.797Z,7.55
2022-12-25T02:18:02.659Z,11.40
2022-12-25T02:20:35.411Z,9.30
2022-12-25T02:23:18.461Z,8.95
2022-12-25T02:26:10.774Z,9.05
2022-12-25T02:28:45.952Z,8.75
2022-12-25T02:31:25.328Z,8.02
2022-12-25T02:34:18.963Z,8.35
2022-12-25T02:36:57.569Z,7.60
2022-12-25T02:39:48.950Z,8.65
2022-12-25T02:42:46.702Z,7.30
2022-12-25T02:48:21.161Z,8.55
2022-12-25T02:51:07.188Z,6.90
2022-12-25T02:53:54.646Z,9.95
2022-12-25T02:56:41.721Z,8.30
2022-12-25T02:59:27.228Z,9.15
2022-12-25T03:02:13.306Z,7.40
2022-12-25T03:05:01.085Z,9.02
2022-12-25T03:07:30.994Z,9.85
2022-12-25T03:10:22.124Z,7.75
2022-12-25T03:13:05.252Z,7.32
2022-12-25T03:15:53.087Z,8.02
2022-12-25T03:21:07.682Z,7.22
2022-12-25T03:23:54.137Z,7.38
2022-12-25T03:26:39.676Z,8.00
2022-12-25T03:29:06.516Z,8.50
2022-12-25T03:31:58.531Z,7.88
2022-12-25T03:35:22.707Z,5.95
2022-12-25T03:38:26.933Z,6.43
2022-12-25T03:41:31.289Z,8.73
2022-12-25T03:44:28.845Z,6.20
2022-12-25T03:47:28.327Z,6.53
2022-12-25T03:50:23.339Z,10.30
2022-12-25T03:53:11.430Z,6.90
2022-12-25T03:55:57.967Z,6.28
2022-12-25T03:58:45.381Z,5.90
2022-12-25T04:01:31.381Z,7.07
2022-12-25T04:04:17.261Z,5.80
2022-12-25T04:07:02.739Z,7.03
2022-12-25T04:09:48.394Z,7.38
2022-12-25T04:12:33.914Z,5.70
2022-12-25T04:15:22.349Z,6.47
2022-12-25T04:18:11.548Z,6.93
2022-12-25T04:20:57.091Z,7.18
2022-12-25T04:23:42.525Z,6.88
2022-12-25T04:26:28.173Z,7.30
2022-12-25T04:29:13.660Z,5.80
2022-12-25T04:31:59.148Z,5.63
2022-12-25T04:34:44.654Z,5.85
2022-12-25T04:37:11.422Z,7.13
2022-12-25T04:39:38.186Z,9.20
2022-12-25T04:42:06.262Z,5.40
2022-12-25T04:44:33.481Z,6.03
2022-12-25T04:47:01.137Z,5.67
2022-12-25T04:49:30.359Z,5.43
2022-12-25T04:51:57.144Z,5.65
2022-12-25T04:54:24.361Z,5.63
2022-12-25T04:56:51.616Z,7.88
2022-12-25T04:59:18.357Z,6.03
2022-12-25T05:01:45.213Z,5.38
2022-12-25T05:04:11.996Z,4.72
2022-12-25T05:06:39.043Z,7.18
2022-12-25T05:09:06.261Z,5.80
2022-12-25T05:11:33.092Z,6.50
2022-12-25T05:13:59.838Z,6.78
2022-12-25T05:16:26.896Z,4.88
2022-12-25T05:18:56.443Z,4.78
2022-12-25T05:21:23.874Z,5.85
2022-12-25T05:23:51.902Z,8.15
2022-12-25T05:26:22.097Z,5.13
2022-12-25T05:28:49.337Z,4.25
2022-12-25T05:31:16.942Z,6.93
2022-12-25T05:33:44.499Z,3.95
2022-12-25T05:36:13.325Z,5.45
2022-12-25T05:38:42.795Z,6.00
2022-12-25T05:41:09.873Z,6.43
2022-12-25T05:43:37.161Z,5.20
2022-12-25T05:46:06.466Z,4.07
2022-12-25T05:48:35.620Z,5.30
2022-12-25T05:51:07.245Z,5.20
2022-12-25T05:53:34.800Z,5.50
2022-12-25T05:56:04.060Z,4.78
2022-12-25T05:58:33.025Z,4.60
2022-12-25T06:00:59.892Z,5.53
2022-12-25T06:03:27.429Z,5.22
2022-12-25T06:05:54.854Z,5.63
2022-12-25T06:08:22.305Z,6.07
2022-12-25T06:10:49.067Z,4.05
2022-12-25T06:13:16.289Z,5.55
2022-12-25T06:15:43.589Z,4.50
2022-12-25T06:18:10.881Z,5.10
2022-12-25T06:20:41.271Z,5.37
2022-12-25T06:23:08.596Z,4.63
2022-12-25T06:25:39.735Z,4.77
2022-12-25T06:28:10.915Z,5.10
2022-12-25T06:30:38.186Z,6.18
2022-12-25T06:33:04.965Z,3.77
2022-12-25T06:35:31.723Z,4.60
2022-12-25T06:37:59.050Z,4.80
2022-12-25T06:40:26.305Z,4.43
2022-12-25T06:42:53.210Z,3.23
2022-12-25T06:45:20.455Z,3.15
2022-12-25T06:47:47.240Z,4.77
2022-12-25T06:50:13.999Z,6.40
2022-12-25T06:52:40.770Z,4.28
2022-12-25T06:55:07.812Z,4.40
2022-12-25T06:57:35.029Z,5.28
2022-12-25T07:00:01.892Z,4.15
2022-12-25T07:02:29.453Z,3.75
2022-12-25T07:04:56.855Z,3.00
2022-12-25T07:07:23.727Z,4.50
2022-12-25T07:09:50.985Z,5.20
2022-12-25T07:12:21.095Z,3.57
2022-12-25T07:14:50.869Z,4.10
2022-12-25T07:17:18.624Z,5.20
2022-12-25T07:19:47.649Z,4.32
2022-12-25T07:22:15.731Z,5.50
2022-12-25T07:24:42.738Z,5.32
2022-12-25T07:27:09.523Z,5.43
2022-12-25T07:29:36.872Z,5.65
2022-12-25T07:32:03.841Z,4.53
2022-12-25T07:34:31.194Z,3.60
2022-12-25T07:36:57.946Z,3.87
2022-12-25T07:39:24.726Z,3.63
2022-12-25T07:41:51.676Z,5.15
2022-12-25T07:44:19.148Z,7.55
2022-12-25T07:46:46.449Z,3.10
2022-12-25T07:49:14.158Z,4.67
2022-12-25T07:51:40.941Z,3.92
2022-12-25T07:54:09.951Z,4.40
2022-12-25T07:56:36.745Z,3.65
2022-12-25T07:59:03.613Z,5.35
2022-12-25T08:01:31.003Z,7.63
2022-12-25T08:04:00.930Z,5.63
2022-12-25T08:06:34.799Z,5.07
2022-12-25T08:09:08.495Z,5.72
2022-12-25T08:11:35.961Z,3.50
2022-12-25T08:14:06.791Z,3.40
2022-12-25T08:16:34.429Z,3.78
2022-12-25T08:19:02.164Z,3.08
2022-12-25T08:21:28.917Z,8.02
2022-12-25T08:23:56.210Z,5.28
2022-12-25T08:26:23.929Z,6.50
2022-12-25T08:28:51.704Z,10.73
2022-12-25T08:31:23.285Z,5.13
2022-12-25T08:33:53.396Z,4.93
2022-12-25T08:36:21.543Z,5.45
2022-12-25T08:41:16.831Z,5.22
2022-12-25T08:43:43.715Z,4.95
2022-12-25T08:46:13.174Z,4.32
2022-12-25T08:48:44.007Z,5.90
2022-12-25T08:51:14.686Z,5.32
2022-12-25T08:53:45.666Z,4.45
2022-12-25T08:56:13.237Z,4.90
2022-12-25T08:58:40.301Z,7.00
2022-12-25T09:01:07.831Z,2.92
2022-12-25T09:03:35.452Z,5.53
2022-12-25T09:06:13.840Z,3.05
2022-12-25T09:08:47.764Z,5.85
2022-12-25T09:11:16.335Z,4.18
2022-12-25T09:13:43.170Z,3.67
2022-12-25T09:16:13.656Z,4.68
2022-12-25T09:18:40.515Z,3.30
2022-12-25T09:21:11.899Z,4.22
2022-12-25T09:23:39.073Z,4.30
2022-12-25T09:26:08.727Z,4.40
2022-12-25T09:28:35.595Z,4.05
2022-12-25T09:31:02.953Z,3.53
2022-12-25T09:33:29.765Z,6.95
2022-12-25T09:36:05.239Z,4.47
2022-12-25T09:38:33.286Z,4.30
2022-12-25T09:41:02.914Z,3.97
2022-12-25T09:43:33.431Z,4.20
2022-12-25T09:46:02.711Z,3.63
2022-12-25T09:48:33.573Z,4.18
2022-12-25T09:51:08.028Z,4.60
2022-12-25T09:53:43.863Z,9.35
2022-12-25T09:56:25.580Z,6.55
2022-12-25T09:58:53.333Z,7.07
2022-12-25T10:01:49.754Z,9.30
2022-12-25T10:04:52.379Z,8.60
2022-12-25T10:07:50.508Z,4.78
2022-12-25T10:10:51.499Z,7.07
2022-12-25T10:13:47.670Z,5.45
2022-12-25T10:16:47.833Z,4.32
2022-12-25T10:19:23.976Z,5.95
2022-12-25T10:21:54.842Z,2.45
2022-12-25T10:24:50.486Z,5.25
2022-12-25T10:27:32.199Z,4.25
2022-12-25T10:30:00.485Z,3.75
2022-12-25T10:32:27.779Z,5.53
2022-12-25T10:34:55.119Z,6.77
2022-12-25T10:37:21.931Z,7.50
2022-12-25T10:39:49.245Z,8.73
2022-12-25T10:42:28.270Z,3.00
2022-12-25T10:45:07.983Z,4.03
2022-12-25T10:47:38.242Z,4.10
2022-12-25T10:50:26.354Z,18.25
2022-12-25T10:52:56.874Z,20.60
2022-12-25T10:55:28.789Z,4.38
2022-12-25T10:57:57.964Z,9.90
2022-12-25T11:00:31.125Z,5.78
2022-12-25T11:02:59.187Z,4.97
2022-12-25T11:05:35.034Z,3.90
2022-12-25T11:08:03.214Z,4.55
2022-12-25T11:13:07.747Z,4.30
2022-12-25T11:15:44.011Z,4.72
2022-12-25T11:18:19.806Z,8.02
2022-12-25T11:20:55.197Z,8.82
2022-12-25T11:23:25.214Z,7.65
2022-12-25T11:26:04.439Z,7.90
2022-12-25T11:28:33.713Z,7.60
2022-12-25T11:31:13.939Z,5.30
2022-12-25T11:33:50.069Z,7.32
2022-12-25T11:36:53.128Z,6.93
2022-12-25T11:39:36.285Z,6.70
2022-12-25T11:42:12.154Z,8.15
2022-12-25T11:44:53.385Z,10.93
2022-12-25T11:47:31.559Z,13.07
2022-12-25T11:50:04.970Z,9.10
2022-12-25T11:52:38.359Z,16.58
2022-12-25T11:55:22.274Z,15.13
2022-12-25T11:57:55.155Z,11.75
2022-12-25T12:00:22.372Z,7.07
2022-12-25T12:03:22.234Z,5.10
2022-12-25T12:05:53.652Z,4.53
2022-12-25T12:08:20.439Z,10.70
2022-12-25T12:11:19.136Z,5.53
2022-12-25T12:14:10.998Z,5.57
2022-12-25T12:16:37.924Z,5.30
2022-12-25T12:19:31.773Z,6.65
2022-12-25T12:22:03.873Z,3.67
2022-12-25T12:25:01.491Z,3.30
2022-12-25T12:27:39.111Z,5.68
2022-12-25T12:30:07.648Z,4.55
2022-12-25T12:32:36.887Z,6.60
2022-12-25T12:35:30.999Z,4.50
2022-12-25T12:38:02.476Z,9.35
2022-12-25T12:40:37.442Z,4.70
2022-12-25T12:43:05.712Z,10.10
2022-12-25T12:45:37.517Z,4.93
2022-12-25T12:48:22.813Z,4.68
2022-12-25T12:50:49.620Z,4.63
2022-12-25T12:53:22.181Z,4.82
2022-12-25T12:55:52.330Z,2.63
2022-12-25T12:58:36.375Z,3.83
2022-12-25T13:01:06.370Z,2.95
2022-12-25T13:03:52.057Z,2.88
2022-12-25T13:06:48.058Z,2.35
2022-12-25T13:09:56.818Z,2.35
2022-12-25T13:12:24.943Z,5.15
2022-12-25T13:17:22.932Z,4.45
2022-12-25T13:19:56.275Z,4.65
2022-12-25T13:22:32.903Z,4.53
2022-12-25T13:25:02.139Z,3.50
2022-12-25T13:27:34.375Z,2.30
2022-12-25T13:30:18.956Z,4.30
2022-12-25T13:32:46.221Z,3.75
2022-12-25T13:35:15.346Z,5.10
2022-12-25T13:37:43.152Z,3.33
2022-12-25T13:40:27.500Z,4.63
2022-12-25T13:43:01.891Z,4.13
2022-12-25T13:45:30.935Z,3.85
2022-12-25T13:48:09.133Z,4.85
2022-12-25T13:50:37.229Z,2.50
2022-12-25T13:53:12.640Z,4.93
2022-12-25T13:55:40.041Z,3.70
2022-12-25T13:58:14.749Z,2.45
2022-12-25T14:00:48.856Z,2.90
2022-12-25T14:03:24.912Z,3.33
2022-12-25T14:06:22.656Z,2.30
2022-12-25T14:11:20.759Z,1.63
2022-12-25T14:13:50.059Z,2.78
2022-12-25T14:16:18.220Z,6.35
2022-12-25T14:21:35.949Z,2.45
2022-12-25T14:24:03.291Z,2.90
2022-12-25T14:26:32.844Z,2.35
2022-12-25T14:29:05.779Z,3.25
2022-12-25T14:31:33.691Z,1.65
2022-12-25T14:34:02.098Z,2.33
2022-12-25T14:36:30.979Z,1.83
2022-12-25T14:39:03.875Z,1.60
2022-12-25T14:41:38.877Z,3.75
2022-12-25T14:44:25.635Z,4.30
2022-12-25T14:47:19.304Z,3.08
2022-12-25T14:49:47.073Z,2.38
2022-12-25T14:52:21.633Z,1.20
2022-12-25T14:54:52.804Z,2.17
2022-12-25T14:57:37.325Z,1.73
2022-12-25T15:00:09.467Z,1.75
2022-12-25T15:02:44.553Z,2.13
2022-12-25T15:05:37.156Z,2.03
2022-12-25T15:08:03.948Z,4.32
2022-12-25T15:13:20.949Z,2.72
2022-12-25T15:15:58.937Z,1.83
2022-12-25T15:20:56.247Z,1.55
2022-12-25T15:23:25.270Z,2.90
2022-12-25T15:25:52.406Z,1.70
2022-12-25T15:28:20.153Z,2.70
2022-12-25T15:30:47.314Z,1.38
2022-12-25T15:33:15.942Z,1.90
2022-12-25T15:35:45.548Z,2.72
2022-12-25T15:38:13.042Z,2.17
2022-12-25T15:40:40.351Z,1.77
2022-12-25T15:43:38.944Z,1.90
2022-12-25T15:45:58.477Z,2.33
2022-12-25T15:48:25.264Z,1.98
2022-12-25T15:51:17.277Z,1.60
2022-12-25T15:53:44.041Z,2.42
2022-12-25T15:56:12.110Z,1.30
2022-12-25T15:58:38.937Z,1.60
2022-12-25T16:01:05.826Z,3.05
2022-12-25T16:03:32.670Z,1.83
2022-12-25T16:05:59.475Z,2.15
2022-12-25T16:08:26.250Z,3.47
2022-12-25T16:10:55.021Z,3.17
2022-12-25T16:13:22.395Z,1.73
2022-12-25T16:15:49.316Z,2.50
2022-12-25T16:18:16.086Z,1.95
2022-12-25T16:20:43.444Z,1.75
2022-12-25T16:23:10.266Z,1.60
2022-12-25T16:25:37.112Z,1.60
2022-12-25T16:28:06.183Z,2.03
2022-12-25T16:30:34.759Z,1.63
2022-12-25T16:33:03.911Z,1.50
2022-12-25T16:35:30.914Z,3.15
2022-12-25T16:37:57.855Z,3.63
2022-12-25T16:40:24.717Z,2.50
2022-12-25T16:42:51.497Z,1.50
2022-12-25T16:45:18.805Z,2.15
2022-12-25T16:47:46.026Z,1.90
2022-12-25T16:50:13.324Z,2.17
2022-12-25T16:52:40.115Z,4.03
2022-12-25T16:55:07.128Z,2.92
2022-12-25T16:57:34.435Z,2.13
2022-12-25T17:00:01.795Z,1.30
2022-12-25T17:02:29.339Z,1.50
2022-12-25T17:04:56.297Z,1.17
2022-12-25T17:07:23.089Z,1.67
2022-12-25T17:09:50.729Z,1.70
2022-12-25T17:12:17.809Z,2.03
2022-12-25T17:14:50.281Z,1.38
2022-12-25T17:17:17.111Z,1.85
2022-12-25T17:19:46.987Z,3.80
2022-12-25T17:22:13.836Z,1.35
2022-12-25T17:24:41.585Z,1.58
2022-12-25T17:27:10.889Z,1.73
2022-12-25T17:29:41.004Z,1.30
2022-12-25T17:32:08.700Z,2.45
2022-12-25T17:34:35.670Z,1.73
2022-12-25T17:37:02.629Z,1.90
2022-12-25T17:39:29.498Z,1.80
2022-12-25T17:41:58.556Z,2.08
2022-12-25T17:44:28.461Z,1.30
2022-12-25T17:47:01.408Z,2.15
2022-12-25T17:49:28.241Z,1.70
2022-12-25T17:51:55.069Z,1.77
2022-12-25T17:54:21.871Z,1.95
2022-12-25T17:56:49.440Z,1.45
2022-12-25T17:59:20.508Z,1.85
2022-12-25T18:01:48.184Z,1.58
2022-12-25T18:04:15.143Z,1.40
2022-12-25T18:06:42.425Z,1.52
2022-12-25T18:09:11.250Z,1.97
2022-12-25T18:11:41.152Z,1.40
2022-12-25T18:14:11.694Z,3.50
2022-12-25T18:16:41.170Z,2.38
2022-12-25T18:19:11.696Z,3.10
2022-12-25T18:21:39.566Z,1.85
2022-12-25T18:24:08.863Z,1.38
2022-12-25T18:26:36.297Z,2.45
2022-12-25T18:29:03.903Z,1.83
2022-12-25T18:31:31.372Z,1.45
2022-12-25T18:33:59.841Z,2.38
2022-12-25T18:36:29.114Z,1.70
2022-12-25T18:38:57.095Z,1.50
2022-12-25T18:41:23.980Z,1.40
2022-12-25T18:43:55.686Z,2.92
2022-12-25T18:46:27.751Z,1.35
2022-12-25T18:48:56.269Z,1.88
2022-12-25T18:51:29.952Z,2.67
2022-12-25T18:54:03.950Z,1.75
2022-12-25T18:56:30.746Z,1.67
2022-12-25T18:58:59.761Z,2.42
2022-12-25T19:01:26.636Z,3.47
2022-12-25T19:03:58.649Z,10.98
2022-12-25T19:06:33.381Z,4.25
2022-12-25T19:09:00.403Z,5.22
2022-12-25T19:11:27.199Z,3.17
2022-12-25T19:13:54.019Z,6.47
2022-12-25T19:16:26.538Z,2.65
2022-12-25T19:18:53.539Z,6.50
2022-12-25T19:21:20.288Z,7.22
2022-12-25T19:23:49.425Z,4.00
2022-12-25T19:26:16.221Z,6.05
2022-12-25T19:28:43.519Z,4.60
2022-12-25T19:31:11.206Z,5.13
2022-12-25T19:33:40.520Z,8.80
2022-12-25T19:36:10.975Z,2.75
2022-12-25T19:38:38.313Z,6.35
2022-12-25T19:41:16.879Z,4.63
2022-12-25T19:43:47.414Z,5.03
2022-12-25T19:46:33.380Z,4.65
2022-12-25T19:49:07.744Z,5.75
2022-12-25T19:51:39.084Z,3.85
2022-12-25T19:54:07.247Z,4.60
2022-12-25T19:59:02.299Z,3.67
2022-12-25T20:01:30.699Z,5.53
2022-12-25T20:03:57.996Z,1.85
2022-12-25T20:06:31.530Z,1.87
2022-12-25T20:09:01.315Z,3.28
2022-12-25T20:11:30.239Z,4.03
2022-12-25T20:13:58.005Z,4.72
2022-12-25T20:16:26.323Z,4.93
2022-12-25T20:18:53.435Z,2.35
2022-12-25T20:21:22.069Z,2.80
2022-12-25T20:23:50.702Z,4.53
2022-12-25T20:26:19.903Z,4.85
2022-12-25T20:28:47.369Z,3.83
2022-12-25T20:31:20.037Z,2.17
2022-12-25T20:33:47.003Z,4.88
2022-12-25T20:36:14.069Z,5.13
2022-12-25T20:38:41.822Z,2.00
2022-12-25T20:41:29.453Z,2.92
2022-12-25T20:43:56.964Z,3.00
2022-12-25T20:46:25.940Z,1.83
2022-12-25T20:48:53.442Z,2.42
2022-12-25T20:51:23.400Z,3.10
2022-12-25T20:53:51.549Z,2.63
2022-12-25T20:58:46.565Z,2.78
2022-12-25T21:01:16.698Z,2.45
2022-12-25T21:03:45.150Z,2.22
2022-12-25T21:06:12.695Z,2.25
2022-12-25T21:08:41.133Z,4.45
2022-12-25T21:11:09.936Z,3.47
2022-12-25T21:13:40.328Z,1.65
2022-12-25T21:16:13.901Z,2.95
2022-12-25T21:18:40.936Z,4.43
2022-12-25T21:21:11.641Z,1.80
2022-12-25T21:23:39.589Z,1.90
2022-12-25T21:26:23.602Z,2.55
2022-12-25T21:28:54.116Z,2.53
2022-12-25T21:31:21.751Z,4.13
2022-12-25T21:33:51.566Z,2.85
2022-12-25T21:36:30.014Z,3.00
2022-12-25T21:38:56.883Z,2.60
2022-12-25T21:41:24.968Z,1.83
2022-12-25T21:46:19.233Z,4.50
2022-12-25T21:48:46.046Z,2.13
2022-12-25T21:51:43.345Z,3.47
2022-12-25T21:54:10.979Z,3.08
2022-12-25T21:56:44.533Z,1.58
2022-12-25T21:59:15.596Z,1.98
2022-12-25T22:01:43.282Z,2.55
2022-12-25T22:04:11.606Z,2.15
2022-12-25T22:09:24.722Z,2.25
2022-12-25T22:12:10.111Z,1.73
2022-12-25T22:15:02.758Z,3.78
2022-12-25T22:17:52.627Z,1.70
2022-12-25T22:20:22.907Z,1.73
2022-12-25T22:22:51.312Z,1.90
2022-12-25T22:25:18.918Z,2.67
2022-12-25T22:27:46.700Z,2.45
2022-12-25T22:30:18.927Z,2.28
2022-12-25T22:32:46.450Z,3.00
2022-12-25T22:35:14.203Z,1.90
2022-12-25T22:37:42.448Z,1.75
2022-12-25T22:40:12.510Z,1.88
2022-12-25T22:42:39.466Z,1.60
2022-12-25T22:45:06.664Z,2.17
2022-12-25T22:47:33.580Z,2.28
2022-12-25T22:50:00.483Z,1.80
2022-12-25T22:52:27.410Z,2.03
2022-12-25T22:54:54.158Z,2.70
2022-12-25T22:57:20.948Z,4.03
2022-12-25T22:59:47.733Z,2.30
2022-12-25T23:02:14.747Z,1.98
2022-12-25T23:04:41.746Z,3.00
2022-12-25T23:07:09.378Z,2.10
2022-12-25T23:09:36.299Z,4.25
2022-12-25T23:12:03.306Z,3.95
2022-12-25T23:14:38.915Z,1.50
2022-12-25T23:17:30.231Z,2.78
2022-12-25T23:20:17.051Z,3.67
2022-12-25T23:23:03.052Z,1.92
2022-12-25T23:25:48.954Z,1.40
2022-12-25T23:28:35.819Z,2.22
2022-12-25T23:31:02.655Z,2.60
2022-12-25T23:33:29.576Z,1.38
2022-12-25T23:35:56.899Z,1.45
2022-12-25T23:38:23.663Z,1.47
2022-12-25T23:40:51.289Z,2.80
2022-12-25T23:43:18.063Z,2.63
2022-12-25T23:45:44.836Z,1.40
2022-12-25T23:48:12.084Z,1.70
2022-12-25T23:50:38.836Z,1.23
2022-12-25T23:53:05.506Z,1.63
2022-12-25T23:55:33.717Z,1.60
2022-12-25T23:58:00.473Z,3.00
